Time;durP1;ratioP1;P1;durP2;ratioP2;P2;SDS_P1;SDS_P2;PMS_P1;PMS_P2;Temp;Humidity;BMP_temperature;BMP_pressure;BME280_temperature;BME280_humidity;BME280_pressure;Samples;Min_cycle;Max_cycle;Signal;HPM_P1;HPM_P2
2023/06/20 00:00:33;;;;;;;1999.90;999.90;;;;;;;20.76;99.96;97895.03;4993522;28;20030;-73
2023/06/20 00:02:58;;;;;;;1999.90;999.90;;;;;;;20.69;100.00;97908.75;4995516;28;20446;-74
2023/06/20 00:05:24;;;;;;;1999.90;999.90;;;;;;;20.63;100.00;97901.88;4992959;28;20029;-74
2023/06/20 00:07:49;;;;;;;1999.90;999.90;;;;;;;;;;4992938;28;20109;-74
2023/06/20 00:10:14;;;;;;;1999.90;999.90;;;;;;;20.55;100.00;97912.00;4992805;28;20136;-74
2023/06/20 00:12:40;;;;;;;1999.90;999.90;;;;;;;20.56;100.00;97907.25;4992879;28;20037;-73
2023/06/20 00:15:06;;;;;;;1999.90;999.90;;;;;;;20.45;100.00;97890.34;4993042;28;20034;-74
2023/06/20 00:17:31;;;;;;;1999.90;999.90;;;;;;;20.52;100.00;97906.38;4992933;28;20026;-74
2023/06/20 00:19:57;;;;;;;1999.90;999.90;;;;;;;20.39;100.00;97902.09;4993002;28;20026;-74
2023/06/20 00:22:23;;;;;;;1999.90;999.90;;;;;;;20.54;100.00;97898.50;4992778;28;20112;-74
2023/06/20 00:24:48;;;;;;;1999.90;999.90;;;;;;;20.53;100.00;97891.31;4993046;28;20023;-74
2023/06/20 00:27:13;;;;;;;1999.90;999.90;;;;;;;20.36;100.00;97898.06;4992750;28;20049;-75
2023/06/20 00:29:40;;;;;;;1999.90;999.90;;;;;;;20.24;100.00;97898.94;4992675;28;20026;-74
2023/06/20 00:32:05;;;;;;;1999.90;999.90;;;;;;;20.17;100.00;97895.97;4993168;28;20030;-73
2023/06/20 00:34:31;;;;;;;1999.90;999.90;;;;;;;20.19;100.00;97896.44;4974644;28;20387;-75
2023/06/20 00:36:56;;;;;;;1999.90;999.90;;;;;;;20.10;100.00;97897.78;4974649;28;20056;-73
2023/06/20 00:39:21;;;;;;;1999.90;999.90;;;;;;;20.12;100.00;97910.16;4974088;28;20022;-74
2023/06/20 00:41:47;;;;;;;1999.90;999.90;;;;;;;20.14;100.00;97912.59;4991563;28;20092;-75
2023/06/20 00:44:12;;;;;;;1999.90;999.90;;;;;;;20.15;100.00;97911.41;4992239;28;20034;-75
2023/06/20 00:46:39;;;;;;;1999.90;999.90;;;;;;;20.04;100.00;97913.94;4992267;28;20030;-74
2023/06/20 00:49:05;;;;;;;1999.90;999.90;;;;;;;20.09;100.00;97918.38;4992234;28;20380;-74
2023/06/20 00:51:32;;;;;;;1999.90;999.90;;;;;;;20.21;100.00;97905.22;4992088;28;20026;-74
2023/06/20 00:53:58;;;;;;;1999.90;999.90;;;;;;;20.30;100.00;97908.63;4991798;28;20014;-74
2023/06/20 00:56:24;;;;;;;1999.90;999.90;;;;;;;20.10;100.00;97898.59;4991995;28;20109;-73
2023/06/20 00:58:50;;;;;;;1999.90;999.90;;;;;;;20.10;100.00;97900.56;4992027;28;20573;-73
2023/06/20 01:01:17;;;;;;;1999.90;999.90;;;;;;;19.82;100.00;97888.75;4974655;28;20034;-73
2023/06/20 01:03:43;;;;;;;1999.90;999.90;;;;;;;19.82;100.00;97900.66;4991824;28;20061;-74
2023/06/20 01:06:32;;;;;;;1999.90;999.90;;;;;;;19.75;100.00;97901.28;4974282;28;20025;-74
2023/06/20 01:09:18;;;;;;;1999.90;999.90;;;;;;;19.63;100.00;97906.91;4992003;28;20027;-74
2023/06/20 01:11:48;;;;;;;1999.90;999.90;;;;;;;19.68;100.00;97903.03;4992033;28;20022;-73
2023/06/20 01:14:30;;;;;;;1999.90;999.90;;;;;;;19.55;100.00;97904.25;4996606;28;20030;-74
2023/06/20 01:17:01;;;;;;;1999.90;999.90;;;;;;;19.55;100.00;97912.59;4993692;28;20041;-74
2023/06/20 01:19:47;;;;;;;1999.90;999.90;;;;;;;19.50;100.00;97910.91;4991880;28;20030;-75
2023/06/20 01:22:38;;;;;;;1999.90;999.90;;;;;;;19.43;100.00;97915.44;4992995;28;20081;-74
2023/06/20 01:25:08;;;;;;;1999.90;999.90;;;;;;;19.43;100.00;97918.22;4973464;28;20034;-74
2023/06/20 01:27:40;;;;;;;1999.90;999.90;;;;;;;19.50;100.00;97916.44;4972147;28;20357;-74
2023/06/20 01:30:10;;;;;;;1999.90;999.90;;;;;;;19.53;100.00;97917.69;4971854;28;20117;-74
2023/06/20 01:32:46;;;;;;;1999.90;999.90;;;;;;;19.56;100.00;97925.31;4972559;28;20030;-74
2023/06/20 01:35:19;;;;;;;1999.90;999.90;;;;;;;19.56;100.00;97925.31;4980683;28;20030;-74
2023/06/20 01:37:48;;;;;;;1999.90;999.90;;;;;;;19.49;100.00;97914.00;4991081;28;20045;-74
2023/06/20 01:40:18;;;;;;;1999.90;999.90;;;;;;;19.44;100.00;97922.59;4991390;28;20069;-74
2023/06/20 01:42:45;;;;;;;1999.90;999.90;;;;;;;19.44;100.00;97917.88;4991156;28;20479;-74
2023/06/20 01:45:13;;;;;;;1999.90;999.90;;;;;;;19.31;100.00;97921.81;4974193;28;20164;-74
2023/06/20 01:47:40;;;;;;;1999.90;999.90;;;;;;;19.24;100.00;97933.50;4994585;28;20396;-75
2023/06/20 01:50:08;;;;;;;1999.90;999.90;;;;;;;19.23;100.00;97917.25;4991805;28;20034;-75
2023/06/20 01:52:35;;;;;;;1999.90;999.90;;;;;;;19.51;100.00;97914.47;4991015;28;20058;-74
2023/06/20 01:55:04;;;;;;;1999.90;999.90;;;;;;;19.48;100.00;97906.88;4991323;28;20030;-75
2023/06/20 01:57:32;;;;;;;1999.90;999.90;;;;;;;19.38;100.00;97910.13;4991129;28;20061;-75
2023/06/20 01:59:59;;;;;;;1999.90;999.90;;;;;;;19.33;100.00;97913.94;4991109;28;20026;-74
2023/06/20 02:02:26;;;;;;;1999.90;999.90;;;;;;;19.27;100.00;97918.13;4991371;28;20121;-73
2023/06/20 02:04:56;;;;;;;1999.90;999.90;;;;;;;19.26;100.00;97911.75;4990970;28;20389;-74
2023/06/20 02:07:22;;;;;;;1999.90;999.90;;;;;;;19.21;100.00;97903.72;4990973;28;20019;-75
2023/06/20 02:09:49;;;;;;;1999.90;999.90;;;;;;;19.27;100.00;97905.06;4973488;28;20499;-73
2023/06/20 02:12:15;;;;;;;1999.90;999.90;;;;;;;19.14;100.00;97895.19;4991022;28;20494;-74
2023/06/20 02:14:41;;;;;;;1999.90;999.90;;;;;;;19.16;100.00;97911.47;4990952;28;20089;-75
2023/06/20 02:17:07;;;;;;;1999.90;999.90;;;;;;;19.15;100.00;97910.66;4990935;28;20491;-74
2023/06/20 02:19:33;;;;;;;1999.90;999.90;;;;;;;19.22;100.00;97905.34;4990919;28;20022;-74
2023/06/20 02:21:59;;;;;;;1999.90;999.90;;;;;;;19.14;100.00;97914.59;4990913;28;20034;-75
2023/06/20 02:24:30;;;;;;;1999.90;999.90;;;;;;;19.02;100.00;97898.00;4991001;28;20026;-74
2023/06/20 02:26:58;;;;;;;1999.90;999.90;;;;;;;18.94;100.00;97912.81;4990610;28;20081;-75
2023/06/20 02:29:28;;;;;;;1999.90;999.90;;;;;;;18.98;100.00;97910.94;4973476;28;20022;-75
2023/06/20 02:31:57;;;;;;;1999.90;999.90;;;;;;;18.99;100.00;97920.06;4990893;28;20357;-75
2023/06/20 02:34:24;;;;;;;1999.90;999.90;;;;;;;18.98;100.00;97921.25;4973399;28;20069;-75
2023/06/20 02:36:52;;;;;;;1999.90;999.90;;;;;;;19.05;100.00;97910.34;4990643;28;20042;-75
2023/06/20 02:39:17;;;;;;;1999.90;999.90;;;;;;;19.10;100.00;97913.69;4990798;28;20029;-75
2023/06/20 02:41:43;;;;;;;1999.90;999.90;;;;;;;19.01;100.00;97909.47;4990688;28;20030;-74
2023/06/20 02:44:08;;;;;;;1999.90;999.90;;;;;;;19.00;100.00;97914.19;4990818;28;20030;-76
2023/06/20 02:47:06;;;;;;;1999.90;999.90;;;;;;;18.96;100.00;97915.22;4990778;28;20022;-75
2023/06/20 02:50:05;;;;;;;1999.90;999.90;;;;;;;18.95;100.00;97916.41;4983318;28;20411;-76
2023/06/20 02:52:48;;;;;;;1999.90;999.90;;;;;;;18.89;100.00;97918.59;4990521;28;20479;-74
2023/06/20 02:55:35;;;;;;;1999.90;999.90;;;;;;;18.87;100.00;97918.16;4973203;28;20026;-74
2023/06/20 02:58:05;;;;;;;1999.90;999.90;;;;;;;18.94;100.00;97921.13;4990712;28;20225;-75
2023/06/20 03:00:32;;;;;;;1999.90;999.90;;;;;;;19.07;100.00;97921.91;4990673;28;20225;-75
2023/06/20 03:03:16;;;;;;;1999.90;999.90;;;;;;;19.03;100.00;97929.31;4991374;28;20104;-75
2023/06/20 03:05:43;;;;;;;1999.90;999.90;;;;;;;18.88;100.00;97922.53;4993960;28;20530;-75
2023/06/20 03:08:09;;;;;;;1999.90;999.90;;;;;;;18.82;100.00;97923.94;4994137;28;20034;-76
2023/06/20 03:10:36;;;;;;;1999.90;999.90;;;;;;;18.72;100.00;97918.88;4994071;28;20166;-75
2023/06/20 03:13:04;;;;;;;1999.90;999.90;;;;;;;18.75;100.00;97920.94;4993880;28;20774;-74
2023/06/20 03:15:29;;;;;;;1999.90;999.90;;;;;;;18.89;100.00;97924.13;4993830;28;20095;-75
2023/06/20 03:17:54;;;;;;;1999.90;999.90;;;;;;;18.75;100.00;97923.72;4993877;28;20113;-75
2023/06/20 03:20:20;;;;;;;1999.90;999.90;;;;;;;18.60;100.00;97922.47;4993606;28;20117;-75
2023/06/20 03:22:45;;;;;;;1999.90;999.90;;;;;;;18.60;100.00;97927.22;4994254;28;20026;-75
2023/06/20 03:25:10;;;;;;;1999.90;999.90;;;;;;;18.75;100.00;97926.50;4997951;28;20029;-75
2023/06/20 03:27:36;;;;;;;1999.90;999.90;;;;;;;18.60;100.00;97913.34;4978605;28;20019;-74
2023/06/20 03:30:03;;;;;;;1999.90;999.90;;;;;;;18.59;100.00;97931.94;4993767;28;20026;-74
2023/06/20 03:32:29;;;;;;;1999.90;999.90;;;;;;;18.60;100.00;97924.44;4994312;28;20027;-75
2023/06/20 03:34:54;;;;;;;1999.90;999.90;;;;;;;18.63;100.00;97932.88;4994165;28;20029;-75
2023/06/20 03:37:20;;;;;;;1999.90;999.90;;;;;;;18.87;100.00;97932.00;4996704;28;20043;-74
2023/06/20 03:39:45;;;;;;;1999.90;999.90;;;;;;;18.95;100.00;97933.81;4993686;28;20026;-75
2023/06/20 03:42:10;;;;;;;1999.90;999.90;;;;;;;18.99;100.00;97945.84;4993746;28;20038;-75
2023/06/20 03:44:36;;;;;;;1999.90;999.90;;;;;;;18.97;100.00;97939.84;4993486;28;20034;-75
2023/06/20 03:47:01;;;;;;;1999.90;999.90;;;;;;;19.18;100.00;97936.88;4994226;28;20027;-73
2023/06/20 03:49:26;;;;;;;1999.90;999.90;;;;;;;19.21;100.00;97937.00;4995227;28;20026;-75
2023/06/20 03:51:52;;;;;;;1999.90;999.90;;;;;;;19.23;100.00;97945.75;4988857;28;20081;-75
2023/06/20 03:54:17;;;;;;;1999.90;999.90;;;;;;;19.30;100.00;97938.78;4981992;28;20053;-74
2023/06/20 03:56:42;;;;;;;1999.90;999.90;;;;;;;19.51;100.00;97947.78;4993254;28;20084;-75
2023/06/20 03:59:08;;;;;;;1999.90;999.90;;;;;;;19.65;100.00;97946.19;4977837;28;20023;-75
2023/06/20 04:01:33;;;;;;;1999.90;999.90;;;;;;;19.84;100.00;97947.47;4973627;28;20563;-74
2023/06/20 04:03:58;;;;;;;1999.90;999.90;;;;;;;19.86;100.00;97934.84;4974371;28;20054;-75
2023/06/20 04:06:30;;;;;;;1999.90;999.90;;;;;;;20.10;100.00;97937.50;4975916;28;20033;-75
2023/06/20 04:08:55;;;;;;;1999.90;999.90;;;;;;;20.19;100.00;97934.53;4979325;28;20121;-77
2023/06/20 04:11:21;;;;;;;1999.90;999.90;;;;;;;20.32;100.00;97938.06;4976102;28;20601;-78
2023/06/20 04:13:46;;;;;;;1999.90;999.90;;;;;;;20.35;100.00;97942.88;4996968;28;20058;-75
2023/06/20 04:16:11;;;;;;;1999.90;999.90;;;;;;;20.50;100.00;97942.06;4979460;28;20026;-75
2023/06/20 04:18:36;;;;;;;1999.90;999.90;;;;;;;20.48;100.00;97942.44;4997240;28;20018;-75
2023/06/20 04:21:02;;;;;;;1999.90;999.90;;;;;;;20.34;100.00;97932.94;4979294;28;20038;-77
2023/06/20 04:23:27;;;;;;;1999.90;999.90;;;;;;;20.36;100.00;97936.97;4987816;28;20033;-77
2023/06/20 04:25:52;;;;;;;1999.90;999.90;;;;;;;20.41;100.00;97944.22;4977068;28;20030;-77
2023/06/20 04:28:18;;;;;;;1999.90;999.90;;;;;;;20.46;100.00;97944.75;4981498;28;20384;-74
2023/06/20 04:30:43;;;;;;;1999.90;999.90;;;;;;;20.45;100.00;97936.78;4972735;28;20207;-75
2023/06/20 04:33:09;;;;;;;1999.90;999.90;;;;;;;20.44;100.00;97935.16;4973633;28;20105;-77
2023/06/20 04:35:34;;;;;;;1999.90;999.90;;;;;;;20.44;100.00;97937.94;4972741;28;20027;-76
2023/06/20 04:38:01;;;;;;;1999.90;999.90;;;;;;;20.54;100.00;97943.78;4963292;28;20133;-76
2023/06/20 04:40:27;;;;;;;1999.90;999.90;;;;;;;20.58;100.00;97949.41;4999197;28;20081;-75
2023/06/20 04:42:52;;;;;;;1999.90;999.90;;;;;;;20.54;100.00;97931.84;4991852;28;20034;-81
2023/06/20 04:45:18;;;;;;;1999.90;999.90;;;;;;;20.52;100.00;97943.31;4991773;28;20106;-73
2023/06/20 04:47:43;;;;;;;1999.90;999.90;;;;;;;20.63;100.00;97940.78;4973006;28;20038;-71
2023/06/20 04:50:09;;;;;;;1999.90;999.90;;;;;;;20.69;100.00;97944.91;4972260;28;20034;-70
2023/06/20 04:52:35;;;;;;;1999.90;999.90;;;;;;;20.76;100.00;97947.88;4978758;28;20037;-71
2023/06/20 04:55:03;;;;;;;1999.90;999.90;;;;;;;20.72;100.00;97946.97;4974476;28;20483;-73
2023/06/20 04:57:32;;;;;;;1999.90;999.90;;;;;;;20.68;100.00;97946.88;5001869;28;20038;-72
2023/06/20 04:59:58;;;;;;;1999.90;999.90;;;;;;;20.71;100.00;97945.34;5011069;28;20034;-71
2023/06/20 05:02:24;;;;;;;1999.90;999.90;;;;;;;20.65;100.00;97950.38;5000758;28;20048;-72
2023/06/20 05:04:49;;;;;;;1999.90;999.90;;;;;;;20.80;100.00;97946.75;4980885;28;20026;-71
2023/06/20 05:07:15;;;;;;;1999.90;999.90;;;;;;;20.87;100.00;97943.34;4971843;28;20397;-73
2023/06/20 05:09:40;;;;;;;1999.90;999.90;;;;;;;21.00;100.00;97946.78;4989527;28;20165;-73
2023/06/20 05:12:07;;;;;;;1999.90;999.90;;;;;;;21.08;100.00;97940.25;4991178;28;20041;-73
2023/06/20 05:14:32;;;;;;;1999.90;999.90;;;;;;;21.24;100.00;97943.78;4991826;28;20037;-73
2023/06/20 05:16:58;;;;;;;1999.90;999.90;;;;;;;21.41;100.00;97943.34;4973958;28;20026;-75
2023/06/20 05:19:23;;;;;;;1999.90;999.90;;;;;;;21.43;100.00;97946.56;4991385;28;20026;-73
2023/06/20 05:21:49;;;;;;;1999.90;999.90;;;;;;;21.51;100.00;97953.09;4974404;28;20030;-74
2023/06/20 05:24:14;;;;;;;1999.90;999.90;;;;;;;21.62;100.00;97965.25;4973313;28;20476;-73
2023/06/20 05:26:40;;;;;;;1999.90;999.90;;;;;;;21.67;100.00;97959.38;4972476;28;20015;-74
2023/06/20 05:29:05;;;;;;;1999.90;999.90;;;;;;;21.73;100.00;97966.28;4990798;28;20026;-74
2023/06/20 05:31:31;;;;;;;1999.90;999.90;;;;;;;21.78;100.00;97963.19;4990974;28;20495;-74
2023/06/20 05:33:56;;;;;;;1999.90;999.90;;;;;;;21.80;100.00;97961.63;4991764;28;20453;-73
2023/06/20 05:36:21;;;;;;;1999.90;999.90;;;;;;;21.92;100.00;97969.06;4992563;28;20048;-72
2023/06/20 05:38:49;;;;;;;1999.90;999.90;;;;;;;21.99;100.00;97957.25;4992718;28;20030;-73
2023/06/20 05:41:15;;;;;;;1999.90;999.90;;;;;;;22.03;100.00;97963.66;4991980;28;20034;-74
2023/06/20 05:43:41;;;;;;;1999.90;999.90;;;;;;;22.02;100.00;97967.66;4991708;28;20456;-74
2023/06/20 05:46:06;;;;;;;1999.90;999.90;;;;;;;22.12;100.00;97962.25;4991344;28;20034;-74
2023/06/20 05:48:33;;;;;;;1999.90;999.90;;;;;;;22.22;100.00;97972.00;4991221;28;20022;-73
2023/06/20 05:51:00;;;;;;;1999.90;999.90;;;;;;;22.03;100.00;97978.41;4990960;28;20033;-73
2023/06/20 05:53:26;;;;;;;1999.90;999.90;;;;;;;22.11;100.00;97966.25;4991032;28;20498;-74
2023/06/20 05:55:51;;;;;;;1999.90;999.90;;;;;;;22.34;100.00;97964.25;4973220;28;20027;-73
2023/06/20 05:58:17;;;;;;;1999.90;999.90;;;;;;;22.37;100.00;97971.88;4990852;28;20033;-74
2023/06/20 06:00:44;;;;;;;1999.90;999.90;;;;;;;22.50;100.00;97971.66;4990741;28;20121;-74
2023/06/20 06:03:09;;;;;;;1999.90;999.90;;;;;;;22.70;100.00;97976.03;4990946;28;20053;-74
2023/06/20 06:05:34;;;;;;;1999.90;999.90;;;;;;;22.71;100.00;97975.63;4990963;28;20034;-74
2023/06/20 06:08:00;;;;;;;1999.90;999.90;;;;;;;22.84;100.00;97973.44;4990815;28;20045;-73
2023/06/20 06:10:25;;;;;;;1999.90;999.90;;;;;;;23.02;99.09;97965.34;4990920;28;20050;-75
2023/06/20 06:12:50;;;;;;;1999.90;999.90;;;;;;;23.13;98.21;97975.47;4992055;28;20046;-73
2023/06/20 06:15:16;;;;;;;1999.90;999.90;;;;;;;23.26;97.82;97976.88;4991781;28;20054;-74
2023/06/20 06:17:43;;;;;;;1999.90;999.90;;;;;;;23.33;96.42;97982.56;4991662;28;20607;-75
2023/06/20 06:20:12;;;;;;;1999.90;999.90;;;;;;;23.38;96.73;97973.84;4990721;28;20032;-74
2023/06/20 06:22:38;;;;;;;1999.90;999.90;;;;;;;23.49;95.44;97982.41;4973511;28;20042;-74
2023/06/20 06:25:07;;;;;;;1999.90;999.90;;;;;;;23.57;94.46;97988.84;4978455;28;20034;-73
2023/06/20 06:27:34;;;;;;;1999.90;999.90;;;;;;;23.59;93.41;97984.50;4997111;28;20030;-74
2023/06/20 06:29:59;;;;;;;1999.90;999.90;;;;;;;23.66;93.50;97983.78;4981970;28;20033;-75
2023/06/20 06:32:27;;;;;;;1999.90;999.90;;;;;;;23.72;92.78;97983.06;5000957;28;20022;-75
2023/06/20 06:34:54;;;;;;;1999.90;999.90;;;;;;;23.80;92.81;97997.94;5000353;28;20022;-74
2023/06/20 06:37:20;;;;;;;1999.90;999.90;;;;;;;23.90;92.74;97983.28;5005179;28;20388;-74
2023/06/20 06:39:46;;;;;;;1999.90;999.90;;;;;;;24.11;91.32;97986.34;4992202;28;20049;-73
2023/06/20 06:42:11;;;;;;;1999.90;999.90;;;;;;;24.27;90.45;97980.50;4999852;28;20388;-76
2023/06/20 06:44:37;;;;;;;1999.90;999.90;;;;;;;24.44;88.21;97985.44;4994283;28;20068;-76
2023/06/20 06:47:03;;;;;;;1999.90;999.90;;;;;;;24.52;88.26;97985.16;4993336;28;20011;-75
2023/06/20 06:49:28;;;;;;;1999.90;999.90;;;;;;;24.58;87.24;97984.78;4993740;28;20527;-76
2023/06/20 06:51:56;;;;;;;1999.90;999.90;;;;;;;24.74;85.66;97985.31;4993276;28;20021;-76
2023/06/20 06:54:21;;;;;;;1999.90;999.90;;;;;;;24.83;84.99;97991.41;4994003;28;20392;-77
2023/06/20 06:56:46;;;;;;;1999.90;999.90;;;;;;;24.90;83.24;97989.47;4994379;28;20186;-78
2023/06/20 06:59:12;;;;;;;1999.90;999.90;;;;;;;24.91;82.43;97982.69;4994197;28;20018;-77
2023/06/20 07:01:37;;;;;;;1999.90;999.90;;;;;;;25.02;82.26;97991.16;4994244;28;20054;-75
2023/06/20 07:04:03;;;;;;;1999.90;999.90;;;;;;;25.14;81.44;97984.44;4995000;28;20109;-77
2023/06/20 07:06:29;;;;;;;1999.90;999.90;;;;;;;25.31;80.80;97989.34;4996651;28;20537;-77
2023/06/20 07:08:54;;;;;;;1999.90;999.90;;;;;;;25.39;80.58;97974.97;4999330;28;20065;-78
2023/06/20 07:11:20;;;;;;;1999.90;999.90;;;;;;;25.54;80.77;97981.47;4994254;28;20050;-78
2023/06/20 07:13:45;;;;;;;1999.90;999.90;;;;;;;25.71;79.84;97975.16;4976529;28;20113;-79
2023/06/20 07:16:10;;;;;;;1999.90;999.90;;;;;;;25.72;78.88;97973.16;4994010;28;20030;-78
2023/06/20 07:18:36;;;;;;;1999.90;999.90;;;;;;;25.93;78.12;97974.03;4993878;28;20030;-76
2023/06/20 07:21:04;;;;;;;1999.90;999.90;;;;;;;25.82;77.77;97976.00;4993750;28;20026;-77
2023/06/20 07:23:29;;;;;;;1999.90;999.90;;;;;;;25.85;77.99;97968.78;4993528;28;20042;-75
2023/06/20 07:25:55;;;;;;;1999.90;999.90;;;;;;;25.77;77.45;97958.75;4993986;28;20464;-76
2023/06/20 07:28:20;;;;;;;1999.90;999.90;;;;;;;25.91;77.49;97967.19;4976451;28;20034;-77
2023/06/20 07:30:45;;;;;;;1999.90;999.90;;;;;;;26.06;77.21;97977.28;4993607;28;20741;-74
2023/06/20 07:33:10;;;;;;;1999.90;999.90;;;;;;;26.27;75.98;97966.13;4993653;28;20113;-78
2023/06/20 07:35:36;;;;;;;1999.90;999.90;;;;;;;26.46;75.00;97965.75;4993941;28;20037;-77
2023/06/20 07:38:01;;;;;;;1999.90;999.90;;;;;;;26.60;75.87;97967.75;4975917;28;20098;-76
2023/06/20 07:40:26;;;;;;;1999.90;999.90;;;;;;;26.88;73.47;97961.34;4993626;28;20117;-77
2023/06/20 07:42:52;;;;;;;1999.90;999.90;;;;;;;26.90;71.85;97956.13;4994122;28;20034;-77
2023/06/20 07:45:17;;;;;;;1999.90;999.90;;;;;;;27.12;70.71;97958.50;5001958;28;20065;-78
2023/06/20 07:47:42;;;;;;;1999.90;999.90;;;;;;;27.15;70.79;97954.09;5000492;28;20672;-79
2023/06/20 07:50:08;;;;;;;1999.90;999.90;;;;;;;27.36;69.76;97950.41;4992623;28;20027;-77
2023/06/20 07:52:33;;;;;;;1999.90;999.90;;;;;;;27.20;69.71;97955.66;4997841;28;20026;-77
2023/06/20 07:55:01;;;;;;;1999.90;999.90;;;;;;;27.18;69.89;97958.09;5000982;28;20014;-76
2023/06/20 07:57:27;;;;;;;1999.90;999.90;;;;;;;27.29;70.29;97956.84;4985535;28;20168;-78
2023/06/20 07:59:52;;;;;;;1999.90;999.90;;;;;;;27.21;70.53;97949.66;5000701;28;20097;-78
2023/06/20 08:02:17;;;;;;;1999.90;999.90;;;;;;;27.90;68.98;97951.81;5003215;28;20038;-77
2023/06/20 08:04:42;;;;;;;1999.90;999.90;;;;;;;28.35;65.96;97947.16;5001083;28;20022;-79
2023/06/20 08:07:08;;;;;;;1999.90;999.90;;;;;;;28.83;64.76;97947.19;5002000;28;20026;-77
2023/06/20 08:09:33;;;;;;;1999.90;999.90;;;;;;;29.06;64.87;97955.81;5003741;28;20026;-77
2023/06/20 08:11:58;;;;;;;1999.90;999.90;;;;;;;29.18;63.45;97958.09;5000799;28;20753;-76
2023/06/20 08:14:24;;;;;;;1999.90;999.90;;;;;;;29.33;62.96;97953.94;4985442;28;20108;-74
2023/06/20 08:16:49;;;;;;;1999.90;999.90;;;;;;;29.72;60.91;97954.28;5002751;28;20287;-76
2023/06/20 08:19:14;;;;;;;1999.90;999.90;;;;;;;29.91;60.13;97960.53;5001220;28;20022;-76
2023/06/20 08:21:39;;;;;;;1999.90;999.90;;;;;;;30.00;59.47;97960.81;5001693;28;21353;-76
2023/06/20 08:24:05;;;;;;;1999.90;999.90;;;;;;;29.80;58.25;97954.19;5002392;28;20484;-77
2023/06/20 08:26:30;;;;;;;1999.90;999.90;;;;;;;29.91;58.01;97943.59;4988705;28;20030;-78
2023/06/20 08:28:55;;;;;;;1999.90;999.90;;;;;;;30.21;56.30;97954.84;5007028;28;20117;-75
2023/06/20 08:31:21;;;;;;;1999.90;999.90;;;;;;;30.29;55.84;97954.31;5008328;28;20073;-75
2023/06/20 08:33:46;;;;;;;1999.90;999.90;;;;;;;30.47;55.32;97954.09;5001498;28;20032;-76
2023/06/20 08:36:12;;;;;;;1999.90;999.90;;;;;;;30.89;54.71;97952.56;5005495;28;20065;-76
2023/06/20 08:38:38;;;;;;;1999.90;999.90;;;;;;;31.54;52.59;97942.53;5010675;28;20030;-76
2023/06/20 08:41:07;;;;;;;1999.90;999.90;;;;;;;32.08;51.21;97950.72;5006550;28;20022;-76
2023/06/20 08:43:34;;;;;;;1999.90;999.90;;;;;;;32.51;50.51;97947.69;4988189;28;20030;-77
2023/06/20 08:45:59;;;;;;;1999.90;999.90;;;;;;;32.47;49.16;97955.47;4971318;28;20027;-77
2023/06/20 08:48:24;;;;;;;1999.90;999.90;;;;;;;32.32;49.49;97949.34;4972151;28;20037;-76
2023/06/20 08:50:51;;;;;;;1999.90;999.90;;;;;;;32.49;47.63;97955.81;4972425;28;20031;-76
2023/06/20 08:53:17;;;;;;;1999.90;999.90;;;;;;;32.28;47.95;97948.63;4972383;28;20034;-76
2023/06/20 08:55:44;;;;;;;1999.90;999.90;;;;;;;32.41;47.71;97938.19;4976340;28;20082;-76
2023/06/20 08:58:10;;;;;;;1999.90;999.90;;;;;;;32.76;46.79;97937.38;4973061;28;20030;-75
2023/06/20 09:00:37;;;;;;;1999.90;999.90;;;;;;;33.19;45.56;97947.59;4971611;28;20158;-77
2023/06/20 09:03:02;;;;;;;1999.90;999.90;;;;;;;33.77;44.67;97937.84;4972229;28;20039;-76
2023/06/20 09:05:32;;;;;;;1999.90;999.90;;;;;;;33.21;45.67;97945.09;4955062;28;20030;-76
2023/06/20 09:07:58;;;;;;;1999.90;999.90;;;;;;;33.77;45.00;97940.69;4954707;28;20027;-76
2023/06/20 09:10:24;;;;;;;1999.90;999.90;;;;;;;33.82;44.03;97940.16;4972097;28;20135;-78
2023/06/20 09:12:56;;;;;;;1999.90;999.90;;;;;;;34.06;43.61;97951.19;4972185;28;20022;-77
2023/06/20 09:15:25;;;;;;;1999.90;999.90;;;;;;;33.75;45.19;97942.41;4972065;28;20495;-77
2023/06/20 09:18:00;;;;;;;1999.90;999.90;;;;;;;33.90;43.40;97952.88;4971808;28;20031;-77
2023/06/20 09:20:28;;;;;;;1999.90;999.90;;;;;;;34.01;42.51;97948.94;4972009;28;20447;-76
2023/06/20 09:22:53;;;;;;;1999.90;999.90;;;;;;;34.09;42.47;97950.28;4972003;28;20480;-77
2023/06/20 09:25:24;;;;;;;1999.90;999.90;;;;;;;34.03;42.04;97946.44;4971969;28;20077;-78
2023/06/20 09:27:50;;;;;;;1999.90;999.90;;;;;;;34.67;40.63;97948.91;4971821;28;20453;-77
2023/06/20 09:30:16;;;;;;;1999.90;999.90;;;;;;;34.14;41.53;97944.09;4971930;28;20101;-76
2023/06/20 09:32:42;;;;;;;1999.90;999.90;;;;;;;33.75;42.19;97937.53;4954082;28;20484;-77
2023/06/20 09:35:09;;;;;;;1999.90;999.90;;;;;;;34.08;41.94;97941.00;4971370;28;20110;-76
2023/06/20 09:37:47;;;;;;;1999.90;999.90;;;;;;;34.07;41.04;97947.13;4971955;28;20051;-76
2023/06/20 09:40:16;;;;;;;1999.90;999.90;;;;;;;33.67;41.34;97930.47;4971325;28;20041;-75
2023/06/20 09:42:43;;;;;;;1999.90;999.90;;;;;;;33.75;41.01;97934.69;4971555;28;20065;-76
2023/06/20 09:45:10;;;;;;;1999.90;999.90;;;;;;;33.99;40.56;97937.25;4971536;28;20033;-77
2023/06/20 09:47:37;;;;;;;1999.90;999.90;;;;;;;34.02;41.13;97939.94;4971852;28;20547;-75
2023/06/20 09:50:16;;;;;;;1999.90;999.90;;;;;;;33.80;41.05;97936.94;4971714;28;20069;-76
2023/06/20 09:53:07;;;;;;;1999.90;999.90;;;;;;;33.74;41.15;97935.13;4954293;28;20054;-75
2023/06/20 09:55:36;;;;;;;1999.90;999.90;;;;;;;34.22;42.11;97940.59;4967614;28;20046;-75
2023/06/20 09:58:04;;;;;;;1999.90;999.90;;;;;;;34.50;40.75;97955.13;4988733;28;20033;-77
2023/06/20 10:00:31;;;;;;;1999.90;999.90;;;;;;;34.67;39.83;97948.13;4975937;28;20090;-77
2023/06/20 10:03:00;;;;;;;1999.90;999.90;;;;;;;34.16;40.82;97942.41;4971294;28;20031;-76
2023/06/20 10:05:27;;;;;;;1999.90;999.90;;;;;;;34.04;40.91;97951.66;4971464;28;20640;-77
2023/06/20 10:07:57;;;;;;;1999.90;999.90;;;;;;;34.24;40.48;97955.13;4971896;28;20081;-78
2023/06/20 10:10:23;;;;;;;1999.90;999.90;;;;;;;34.66;39.24;97964.38;4971368;28;20439;-76
2023/06/20 10:12:48;;;;;;;1999.90;999.90;;;;;;;34.44;39.53;97952.06;4973374;28;20026;-77
2023/06/20 10:15:15;;;;;;;1999.90;999.90;;;;;;;33.13;40.30;97944.53;4957901;28;20029;-76
2023/06/20 10:17:42;;;;;;;1999.90;999.90;;;;;;;32.63;41.90;97939.31;4975349;28;20031;-76
2023/06/20 10:20:23;;;;;;;1999.90;999.90;;;;;;;32.77;42.18;97933.25;4975234;28;20425;-75
2023/06/20 10:22:48;;;;;;;1999.90;999.90;;;;;;;32.67;41.99;97942.81;4975182;28;20039;-75
2023/06/20 10:25:15;;;;;;;1999.90;999.90;;;;;;;32.51;43.27;97942.81;4957891;28;20527;-76
2023/06/20 10:27:53;;;;;;;1999.90;999.90;;;;;;;32.59;42.67;97937.78;4975244;28;20015;-75
2023/06/20 10:30:54;;;;;;;1999.90;999.90;;;;;;;32.48;43.76;97940.06;4974849;28;20046;-77
2023/06/20 10:33:25;;;;;;;1999.90;999.90;;;;;;;32.77;43.66;97932.47;4957502;28;20042;-78
2023/06/20 10:35:59;;;;;;;1999.90;999.90;;;;;;;32.63;43.61;97939.31;4956924;28;20027;-76
2023/06/20 10:38:25;;;;;;;1999.90;999.90;;;;;;;32.59;43.13;97947.09;4975009;28;20126;-73
2023/06/20 10:41:24;;;;;;;1999.90;999.90;;;;;;;32.50;43.33;97934.75;4969012;28;20380;-74
2023/06/20 10:44:00;;;;;;;1999.90;999.90;;;;;;;32.08;44.21;97937.34;4958256;28;20043;-75
2023/06/20 10:46:35;;;;;;;1999.90;999.90;;;;;;;31.64;45.05;97937.88;5003729;28;20034;-73
2023/06/20 10:49:02;;;;;;;1999.90;999.90;;;;;;;31.48;45.25;97932.13;4993913;28;20029;-77
2023/06/20 10:51:29;;;;;;;1999.90;999.90;;;;;;;31.18;45.99;97935.94;4993728;28;20027;-75